sensor_id;sensor_type;location;lat;lon;timestamp;temperature;humidity
14057;DHT22;7103;54.300;10.180;2023-04-29T00:01:21;7.90;1.00
14057;DHT22;7103;54.300;10.180;2023-04-29T00:03:48;8.00;1.00
14057;DHT22;7103;54.300;10.180;2023-04-29T00:06:16;8.00;1.00
14057;DHT22;7103;54.300;10.180;2023-04-29T00:08:43;8.00;1.00
14057;DHT22;7103;54.300;10.180;2023-04-29T00:11:10;7.90;1.00
14057;DHT22;7103;54.300;10.180;2023-04-29T00:13:38;7.90;1.00
14057;DHT22;7103;54.300;10.180;2023-04-29T00:16:07;7.90;1.00
14057;DHT22;7103;54.300;10.180;2023-04-29T00:18:37;7.90;1.00
14057;DHT22;7103;54.300;10.180;2023-04-29T00:21:04;7.90;1.00
14057;DHT22;7103;54.300;10.180;2023-04-29T00:23:32;7.90;1.00
14057;DHT22;7103;54.300;10.180;2023-04-29T00:25:59;8.00;1.00
14057;DHT22;7103;54.300;10.180;2023-04-29T00:28:26;7.90;1.00
14057;DHT22;7103;54.300;10.180;2023-04-29T00:30:53;7.90;1.00
14057;DHT22;7103;54.300;10.180;2023-04-29T00:33:21;7.90;1.00
14057;DHT22;7103;54.300;10.180;2023-04-29T00:35:49;7.80;1.00
14057;DHT22;7103;54.300;10.180;2023-04-29T00:38:16;8.00;1.00
14057;DHT22;7103;54.300;10.180;2023-04-29T00:40:43;7.90;1.00
14057;DHT22;7103;54.300;10.180;2023-04-29T00:43:11;7.90;1.00
14057;DHT22;7103;54.300;10.180;2023-04-29T00:45:38;7.90;1.00
14057;DHT22;7103;54.300;10.180;2023-04-29T00:48:05;7.80;1.00
14057;DHT22;7103;54.300;10.180;2023-04-29T00:50:33;7.80;1.00
14057;DHT22;7103;54.300;10.180;2023-04-29T00:53:00;7.70;1.00
14057;DHT22;7103;54.300;10.180;2023-04-29T00:55:27;7.70;1.00
14057;DHT22;7103;54.300;10.180;2023-04-29T00:57:56;7.70;1.00
14057;DHT22;7103;54.300;10.180;2023-04-29T01:00:23;7.60;1.00
14057;DHT22;7103;54.300;10.180;2023-04-29T01:02:52;7.60;1.00
14057;DHT22;7103;54.300;10.180;2023-04-29T01:05:20;7.70;1.00
14057;DHT22;7103;54.300;10.180;2023-04-29T01:10:44;7.70;1.00
14057;DHT22;7103;54.300;10.180;2023-04-29T01:13:29;7.70;1.00
14057;DHT22;7103;54.300;10.180;2023-04-29T01:16:20;7.70;1.00
14057;DHT22;7103;54.300;10.180;2023-04-29T01:18:57;7.90;1.00
14057;DHT22;7103;54.300;10.180;2023-04-29T01:21:27;7.90;1.00
14057;DHT22;7103;54.300;10.180;2023-04-29T01:23:57;7.80;1.00
14057;DHT22;7103;54.300;10.180;2023-04-29T01:26:25;7.90;1.00
14057;DHT22;7103;54.300;10.180;2023-04-29T01:31:35;7.80;1.00
14057;DHT22;7103;54.300;10.180;2023-04-29T01:34:12;7.80;1.00
14057;DHT22;7103;54.300;10.180;2023-04-29T01:39:34;7.80;1.00
14057;DHT22;7103;54.300;10.180;2023-04-29T01:42:22;7.80;1.00
14057;DHT22;7103;54.300;10.180;2023-04-29T01:44:50;7.70;1.00
14057;DHT22;7103;54.300;10.180;2023-04-29T01:47:19;7.70;1.00
14057;DHT22;7103;54.300;10.180;2023-04-29T01:49:48;7.70;1.00
14057;DHT22;7103;54.300;10.180;2023-04-29T01:52:15;7.60;1.00
14057;DHT22;7103;54.300;10.180;2023-04-29T01:54:42;7.60;1.00
14057;DHT22;7103;54.300;10.180;2023-04-29T01:57:09;7.50;1.00
14057;DHT22;7103;54.300;10.180;2023-04-29T01:59:36;7.50;1.00
14057;DHT22;7103;54.300;10.180;2023-04-29T02:02:03;7.40;1.00
14057;DHT22;7103;54.300;10.180;2023-04-29T02:04:30;7.40;1.00
14057;DHT22;7103;54.300;10.180;2023-04-29T02:06:59;7.40;1.00
14057;DHT22;7103;54.300;10.180;2023-04-29T02:09:27;7.30;1.00
14057;DHT22;7103;54.300;10.180;2023-04-29T02:11:54;7.30;1.00
14057;DHT22;7103;54.300;10.180;2023-04-29T02:14:20;7.20;1.00
14057;DHT22;7103;54.300;10.180;2023-04-29T02:16:47;7.20;1.00
14057;DHT22;7103;54.300;10.180;2023-04-29T02:19:14;7.10;1.00
14057;DHT22;7103;54.300;10.180;2023-04-29T02:21:42;7.00;1.00
14057;DHT22;7103;54.300;10.180;2023-04-29T02:24:09;7.00;1.00
14057;DHT22;7103;54.300;10.180;2023-04-29T02:26:36;7.00;1.00
14057;DHT22;7103;54.300;10.180;2023-04-29T02:29:03;7.00;1.00
14057;DHT22;7103;54.300;10.180;2023-04-29T02:31:30;6.90;1.00
14057;DHT22;7103;54.300;10.180;2023-04-29T02:33:58;6.90;1.00
14057;DHT22;7103;54.300;10.180;2023-04-29T02:36:26;6.90;1.00
14057;DHT22;7103;54.300;10.180;2023-04-29T02:38:53;6.90;1.00
14057;DHT22;7103;54.300;10.180;2023-04-29T02:41:22;6.90;1.00
14057;DHT22;7103;54.300;10.180;2023-04-29T02:43:49;6.90;1.00
14057;DHT22;7103;54.300;10.180;2023-04-29T02:46:16;7.00;1.00
14057;DHT22;7103;54.300;10.180;2023-04-29T02:48:44;7.00;1.90
14057;DHT22;7103;54.300;10.180;2023-04-29T02:51:11;7.00;4.00
14057;DHT22;7103;54.300;10.180;2023-04-29T02:53:38;7.00;10.40
14057;DHT22;7103;54.300;10.180;2023-04-29T02:56:05;7.00;12.90
14057;DHT22;7103;54.300;10.180;2023-04-29T02:58:32;7.00;19.80
14057;DHT22;7103;54.300;10.180;2023-04-29T03:00:59;7.10;20.00
14057;DHT22;7103;54.300;10.180;2023-04-29T03:03:26;7.10;20.00
14057;DHT22;7103;54.300;10.180;2023-04-29T03:05:53;7.10;20.00
14057;DHT22;7103;54.300;10.180;2023-04-29T03:08:20;7.10;20.00
14057;DHT22;7103;54.300;10.180;2023-04-29T03:10:47;7.10;19.90
14057;DHT22;7103;54.300;10.180;2023-04-29T03:13:14;7.20;20.00
14057;DHT22;7103;54.300;10.180;2023-04-29T03:15:41;7.20;18.70
14057;DHT22;7103;54.300;10.180;2023-04-29T03:18:08;7.20;11.10
14057;DHT22;7103;54.300;10.180;2023-04-29T03:20:35;7.30;14.80
14057;DHT22;7103;54.300;10.180;2023-04-29T03:23:02;7.30;1.00
14057;DHT22;7103;54.300;10.180;2023-04-29T03:25:29;7.30;1.00
14057;DHT22;7103;54.300;10.180;2023-04-29T03:27:56;7.40;1.00
14057;DHT22;7103;54.300;10.180;2023-04-29T03:30:23;7.30;1.00
14057;DHT22;7103;54.300;10.180;2023-04-29T03:32:50;7.50;1.00
14057;DHT22;7103;54.300;10.180;2023-04-29T03:35:17;7.50;1.00
14057;DHT22;7103;54.300;10.180;2023-04-29T03:37:44;7.60;1.00
14057;DHT22;7103;54.300;10.180;2023-04-29T03:40:11;7.60;1.00
14057;DHT22;7103;54.300;10.180;2023-04-29T03:42:38;7.50;1.00
14057;DHT22;7103;54.300;10.180;2023-04-29T03:45:06;7.50;1.00
14057;DHT22;7103;54.300;10.180;2023-04-29T03:47:33;7.60;1.00
14057;DHT22;7103;54.300;10.180;2023-04-29T03:50:00;7.60;1.00
14057;DHT22;7103;54.300;10.180;2023-04-29T03:52:27;7.60;1.00
14057;DHT22;7103;54.300;10.180;2023-04-29T03:54:54;7.60;1.00
14057;DHT22;7103;54.300;10.180;2023-04-29T03:57:21;7.60;1.00
14057;DHT22;7103;54.300;10.180;2023-04-29T03:59:48;7.70;1.00
14057;DHT22;7103;54.300;10.180;2023-04-29T04:02:16;7.60;1.00
14057;DHT22;7103;54.300;10.180;2023-04-29T04:04:44;7.60;1.00
14057;DHT22;7103;54.300;10.180;2023-04-29T04:07:11;7.70;1.00
14057;DHT22;7103;54.300;10.180;2023-04-29T04:09:38;7.70;1.00
14057;DHT22;7103;54.300;10.180;2023-04-29T04:12:05;7.70;1.00
14057;DHT22;7103;54.300;10.180;2023-04-29T04:14:32;7.70;1.00
14057;DHT22;7103;54.300;10.180;2023-04-29T04:17:00;7.70;1.00
14057;DHT22;7103;54.300;10.180;2023-04-29T04:19:27;7.90;1.00
14057;DHT22;7103;54.300;10.180;2023-04-29T04:21:55;7.90;1.00
14057;DHT22;7103;54.300;10.180;2023-04-29T04:24:23;7.90;1.00
14057;DHT22;7103;54.300;10.180;2023-04-29T04:26:49;8.00;1.00
14057;DHT22;7103;54.300;10.180;2023-04-29T04:29:16;8.00;1.00
14057;DHT22;7103;54.300;10.180;2023-04-29T04:31:43;8.00;1.00
14057;DHT22;7103;54.300;10.180;2023-04-29T04:34:12;8.00;1.00
14057;DHT22;7103;54.300;10.180;2023-04-29T04:36:39;8.00;1.00
14057;DHT22;7103;54.300;10.180;2023-04-29T04:39:07;8.10;1.00
14057;DHT22;7103;54.300;10.180;2023-04-29T04:41:34;8.30;1.00
14057;DHT22;7103;54.300;10.180;2023-04-29T04:44:01;8.40;1.00
14057;DHT22;7103;54.300;10.180;2023-04-29T04:46:28;8.40;1.00
14057;DHT22;7103;54.300;10.180;2023-04-29T04:48:55;8.40;1.00
14057;DHT22;7103;54.300;10.180;2023-04-29T04:51:22;8.30;1.00
14057;DHT22;7103;54.300;10.180;2023-04-29T04:53:49;8.30;1.00
14057;DHT22;7103;54.300;10.180;2023-04-29T04:56:16;8.40;1.00
14057;DHT22;7103;54.300;10.180;2023-04-29T04:58:43;8.40;1.00
14057;DHT22;7103;54.300;10.180;2023-04-29T05:01:10;8.50;1.00
14057;DHT22;7103;54.300;10.180;2023-04-29T05:03:37;8.60;1.00
14057;DHT22;7103;54.300;10.180;2023-04-29T05:06:04;8.70;1.00
14057;DHT22;7103;54.300;10.180;2023-04-29T05:08:31;8.70;1.00
14057;DHT22;7103;54.300;10.180;2023-04-29T05:10:58;8.80;1.00
14057;DHT22;7103;54.300;10.180;2023-04-29T05:13:25;8.90;1.00
14057;DHT22;7103;54.300;10.180;2023-04-29T05:15:52;8.90;1.00
14057;DHT22;7103;54.300;10.180;2023-04-29T05:18:19;8.90;1.00
14057;DHT22;7103;54.300;10.180;2023-04-29T05:20:46;8.80;1.00
14057;DHT22;7103;54.300;10.180;2023-04-29T05:23:13;8.80;1.00
14057;DHT22;7103;54.300;10.180;2023-04-29T05:25:40;8.80;1.00
14057;DHT22;7103;54.300;10.180;2023-04-29T05:28:08;8.80;1.00
14057;DHT22;7103;54.300;10.180;2023-04-29T05:30:34;8.80;1.00
14057;DHT22;7103;54.300;10.180;2023-04-29T05:33:03;8.90;1.00
14057;DHT22;7103;54.300;10.180;2023-04-29T05:35:30;8.90;1.00
14057;DHT22;7103;54.300;10.180;2023-04-29T05:37:57;9.10;1.00
14057;DHT22;7103;54.300;10.180;2023-04-29T05:40:24;9.10;1.00
14057;DHT22;7103;54.300;10.180;2023-04-29T05:42:51;9.10;1.00
14057;DHT22;7103;54.300;10.180;2023-04-29T05:45:18;9.20;1.00
14057;DHT22;7103;54.300;10.180;2023-04-29T05:47:45;9.30;1.00
14057;DHT22;7103;54.300;10.180;2023-04-29T05:50:12;9.40;1.00
14057;DHT22;7103;54.300;10.180;2023-04-29T05:52:39;9.50;1.00
14057;DHT22;7103;54.300;10.180;2023-04-29T05:55:06;9.70;1.00
14057;DHT22;7103;54.300;10.180;2023-04-29T05:57:33;9.80;1.00
14057;DHT22;7103;54.300;10.180;2023-04-29T06:00:00;9.90;1.00
14057;DHT22;7103;54.300;10.180;2023-04-29T06:02:27;10.40;1.00
14057;DHT22;7103;54.300;10.180;2023-04-29T06:04:54;11.20;1.00
14057;DHT22;7103;54.300;10.180;2023-04-29T06:07:22;12.00;1.00
14057;DHT22;7103;54.300;10.180;2023-04-29T06:09:49;12.70;1.00
14057;DHT22;7103;54.300;10.180;2023-04-29T06:12:17;13.20;1.00
14057;DHT22;7103;54.300;10.180;2023-04-29T06:14:44;13.60;1.00
14057;DHT22;7103;54.300;10.180;2023-04-29T06:17:11;14.20;1.00
14057;DHT22;7103;54.300;10.180;2023-04-29T06:19:38;14.50;1.00
14057;DHT22;7103;54.300;10.180;2023-04-29T06:22:05;14.70;1.00
14057;DHT22;7103;54.300;10.180;2023-04-29T06:24:32;14.90;1.00
14057;DHT22;7103;54.300;10.180;2023-04-29T06:26:59;15.10;1.00
14057;DHT22;7103;54.300;10.180;2023-04-29T06:29:26;15.30;1.00
14057;DHT22;7103;54.300;10.180;2023-04-29T06:31:52;15.50;1.00
14057;DHT22;7103;54.300;10.180;2023-04-29T06:34:20;15.70;1.00
14057;DHT22;7103;54.300;10.180;2023-04-29T06:36:46;15.90;1.00
14057;DHT22;7103;54.300;10.180;2023-04-29T06:39:13;16.00;1.00
14057;DHT22;7103;54.300;10.180;2023-04-29T06:41:40;15.90;1.00
14057;DHT22;7103;54.300;10.180;2023-04-29T06:44:07;15.60;1.00
14057;DHT22;7103;54.300;10.180;2023-04-29T06:46:34;16.00;1.00
14057;DHT22;7103;54.300;10.180;2023-04-29T06:49:01;16.20;1.00
14057;DHT22;7103;54.300;10.180;2023-04-29T06:51:28;16.30;1.00
14057;DHT22;7103;54.300;10.180;2023-04-29T06:53:55;16.60;1.00
14057;DHT22;7103;54.300;10.180;2023-04-29T06:56:22;16.90;1.00
14057;DHT22;7103;54.300;10.180;2023-04-29T06:58:49;17.10;1.00
14057;DHT22;7103;54.300;10.180;2023-04-29T07:01:16;16.70;1.00
14057;DHT22;7103;54.300;10.180;2023-04-29T07:03:44;16.30;1.00
14057;DHT22;7103;54.300;10.180;2023-04-29T07:06:11;16.40;1.00
14057;DHT22;7103;54.300;10.180;2023-04-29T07:08:38;16.10;1.00
14057;DHT22;7103;54.300;10.180;2023-04-29T07:11:06;16.30;1.00
14057;DHT22;7103;54.300;10.180;2023-04-29T07:13:37;16.50;1.00
14057;DHT22;7103;54.300;10.180;2023-04-29T07:16:04;17.20;1.00
14057;DHT22;7103;54.300;10.180;2023-04-29T07:18:32;17.70;1.00
14057;DHT22;7103;54.300;10.180;2023-04-29T07:21:02;17.90;1.00
14057;DHT22;7103;54.300;10.180;2023-04-29T07:23:28;18.10;99.90
14057;DHT22;7103;54.300;10.180;2023-04-29T07:25:55;17.80;99.90
14057;DHT22;7103;54.300;10.180;2023-04-29T07:28:22;17.50;99.90
14057;DHT22;7103;54.300;10.180;2023-04-29T07:30:49;18.10;99.90
14057;DHT22;7103;54.300;10.180;2023-04-29T07:33:16;18.40;99.90
14057;DHT22;7103;54.300;10.180;2023-04-29T07:35:43;18.30;99.90
14057;DHT22;7103;54.300;10.180;2023-04-29T07:38:10;17.70;99.90
14057;DHT22;7103;54.300;10.180;2023-04-29T07:40:38;17.20;99.90
14057;DHT22;7103;54.300;10.180;2023-04-29T07:43:05;17.10;99.90
14057;DHT22;7103;54.300;10.180;2023-04-29T07:45:32;17.00;99.90
14057;DHT22;7103;54.300;10.180;2023-04-29T07:47:59;17.00;99.90
14057;DHT22;7103;54.300;10.180;2023-04-29T07:50:27;16.40;99.90
14057;DHT22;7103;54.300;10.180;2023-04-29T07:52:54;16.10;99.90
14057;DHT22;7103;54.300;10.180;2023-04-29T07:55:23;16.00;99.90
14057;DHT22;7103;54.300;10.180;2023-04-29T07:57:51;15.70;99.90
14057;DHT22;7103;54.300;10.180;2023-04-29T08:00:18;15.80;99.90
14057;DHT22;7103;54.300;10.180;2023-04-29T08:02:45;15.60;99.90
14057;DHT22;7103;54.300;10.180;2023-04-29T08:05:13;16.20;99.90
14057;DHT22;7103;54.300;10.180;2023-04-29T08:07:40;16.50;99.90
14057;DHT22;7103;54.300;10.180;2023-04-29T08:10:07;16.50;99.90
14057;DHT22;7103;54.300;10.180;2023-04-29T08:12:34;16.20;99.90
14057;DHT22;7103;54.300;10.180;2023-04-29T08:15:01;15.90;99.90
14057;DHT22;7103;54.300;10.180;2023-04-29T08:17:30;16.00;99.90
14057;DHT22;7103;54.300;10.180;2023-04-29T08:19:57;16.00;99.90
14057;DHT22;7103;54.300;10.180;2023-04-29T08:22:24;15.90;99.90
14057;DHT22;7103;54.300;10.180;2023-04-29T08:24:51;15.60;99.90
14057;DHT22;7103;54.300;10.180;2023-04-29T08:27:18;15.30;99.90
14057;DHT22;7103;54.300;10.180;2023-04-29T08:29:47;15.10;99.90
14057;DHT22;7103;54.300;10.180;2023-04-29T08:32:13;15.00;99.90
14057;DHT22;7103;54.300;10.180;2023-04-29T08:34:40;15.00;99.90
14057;DHT22;7103;54.300;10.180;2023-04-29T08:37:08;15.00;99.90
14057;DHT22;7103;54.300;10.180;2023-04-29T08:39:35;15.00;99.90
14057;DHT22;7103;54.300;10.180;2023-04-29T08:42:08;15.20;99.90
14057;DHT22;7103;54.300;10.180;2023-04-29T08:44:36;15.30;99.90
14057;DHT22;7103;54.300;10.180;2023-04-29T08:47:03;15.70;99.90
14057;DHT22;7103;54.300;10.180;2023-04-29T08:49:30;16.00;99.90
14057;DHT22;7103;54.300;10.180;2023-04-29T08:51:59;16.60;99.90
14057;DHT22;7103;54.300;10.180;2023-04-29T08:54:26;17.40;99.90
14057;DHT22;7103;54.300;10.180;2023-04-29T08:56:54;17.60;99.90
14057;DHT22;7103;54.300;10.180;2023-04-29T08:59:24;17.80;99.90
14057;DHT22;7103;54.300;10.180;2023-04-29T09:01:53;17.80;99.90
14057;DHT22;7103;54.300;10.180;2023-04-29T09:06:57;18.90;99.90
14057;DHT22;7103;54.300;10.180;2023-04-29T09:09:25;18.90;99.90
14057;DHT22;7103;54.300;10.180;2023-04-29T09:11:52;19.00;99.90
14057;DHT22;7103;54.300;10.180;2023-04-29T09:14:19;19.30;99.90
14057;DHT22;7103;54.300;10.180;2023-04-29T09:16:47;19.80;99.90
14057;DHT22;7103;54.300;10.180;2023-04-29T09:19:34;19.80;99.90
14057;DHT22;7103;54.300;10.180;2023-04-29T09:22:02;20.00;99.90
14057;DHT22;7103;54.300;10.180;2023-04-29T09:24:30;20.00;99.90
14057;DHT22;7103;54.300;10.180;2023-04-29T09:26:58;19.60;99.90
14057;DHT22;7103;54.300;10.180;2023-04-29T09:29:25;19.50;99.90
14057;DHT22;7103;54.300;10.180;2023-04-29T09:31:52;19.40;99.90
14057;DHT22;7103;54.300;10.180;2023-04-29T09:34:39;19.40;99.90
14057;DHT22;7103;54.300;10.180;2023-04-29T09:37:23;19.40;99.90
14057;DHT22;7103;54.300;10.180;2023-04-29T09:39:51;19.60;99.90
14057;DHT22;7103;54.300;10.180;2023-04-29T09:42:18;20.00;99.90
14057;DHT22;7103;54.300;10.180;2023-04-29T09:44:45;19.90;99.90
14057;DHT22;7103;54.300;10.180;2023-04-29T09:47:12;20.40;99.90
14057;DHT22;7103;54.300;10.180;2023-04-29T09:49:42;20.80;99.90
14057;DHT22;7103;54.300;10.180;2023-04-29T09:52:12;21.40;99.90
14057;DHT22;7103;54.300;10.180;2023-04-29T09:54:40;21.30;99.90
14057;DHT22;7103;54.300;10.180;2023-04-29T09:57:10;20.00;99.90
14057;DHT22;7103;54.300;10.180;2023-04-29T09:59:38;20.10;99.90
14057;DHT22;7103;54.300;10.180;2023-04-29T10:02:15;20.30;99.90
14057;DHT22;7103;54.300;10.180;2023-04-29T10:04:45;20.70;99.90
14057;DHT22;7103;54.300;10.180;2023-04-29T10:07:16;21.20;99.90
14057;DHT22;7103;54.300;10.180;2023-04-29T10:09:47;21.40;99.90
14057;DHT22;7103;54.300;10.180;2023-04-29T10:12:16;21.20;99.90
14057;DHT22;7103;54.300;10.180;2023-04-29T10:14:53;21.30;99.90
14057;DHT22;7103;54.300;10.180;2023-04-29T10:25:22;20.80;99.90
14057;DHT22;7103;54.300;10.180;2023-04-29T10:27:50;20.80;99.90
14057;DHT22;7103;54.300;10.180;2023-04-29T10:30:20;20.40;99.90
14057;DHT22;7103;54.300;10.180;2023-04-29T10:32:49;20.30;99.90
14057;DHT22;7103;54.300;10.180;2023-04-29T10:35:19;19.50;99.90
14057;DHT22;7103;54.300;10.180;2023-04-29T10:37:48;19.30;99.90
14057;DHT22;7103;54.300;10.180;2023-04-29T10:42:53;19.60;99.90
14057;DHT22;7103;54.300;10.180;2023-04-29T10:45:24;20.00;99.90
14057;DHT22;7103;54.300;10.180;2023-04-29T10:53:15;20.90;99.90
14057;DHT22;7103;54.300;10.180;2023-04-29T10:55:46;21.00;99.90
14057;DHT22;7103;54.300;10.180;2023-04-29T10:58:43;20.70;99.90
14057;DHT22;7103;54.300;10.180;2023-04-29T11:01:12;20.30;99.90
14057;DHT22;7103;54.300;10.180;2023-04-29T11:03:56;20.00;99.90
14057;DHT22;7103;54.300;10.180;2023-04-29T11:09:10;20.20;99.90
14057;DHT22;7103;54.300;10.180;2023-04-29T11:12:03;20.30;99.90
14057;DHT22;7103;54.300;10.180;2023-04-29T11:14:38;20.10;99.90
14057;DHT22;7103;54.300;10.180;2023-04-29T11:17:14;20.30;99.90
14057;DHT22;7103;54.300;10.180;2023-04-29T11:19:51;20.00;99.90
14057;DHT22;7103;54.300;10.180;2023-04-29T11:25:04;20.00;99.90
14057;DHT22;7103;54.300;10.180;2023-04-29T11:27:32;20.50;99.90
14057;DHT22;7103;54.300;10.180;2023-04-29T11:30:00;20.50;99.90
14057;DHT22;7103;54.300;10.180;2023-04-29T11:32:39;20.20;99.90
14057;DHT22;7103;54.300;10.180;2023-04-29T11:35:15;19.80;99.90
14057;DHT22;7103;54.300;10.180;2023-04-29T11:37:45;19.50;99.90
14057;DHT22;7103;54.300;10.180;2023-04-29T11:40:13;19.40;99.90
14057;DHT22;7103;54.300;10.180;2023-04-29T11:42:45;19.50;99.90
14057;DHT22;7103;54.300;10.180;2023-04-29T11:45:13;19.20;99.90
14057;DHT22;7103;54.300;10.180;2023-04-29T11:47:43;18.80;99.90
14057;DHT22;7103;54.300;10.180;2023-04-29T11:50:14;18.10;99.90
14057;DHT22;7103;54.300;10.180;2023-04-29T11:52:47;18.30;99.90
14057;DHT22;7103;54.300;10.180;2023-04-29T11:55:14;18.70;99.90
14057;DHT22;7103;54.300;10.180;2023-04-29T11:57:41;18.50;99.90
14057;DHT22;7103;54.300;10.180;2023-04-29T12:00:10;18.30;99.90
14057;DHT22;7103;54.300;10.180;2023-04-29T12:02:45;18.60;99.90
14057;DHT22;7103;54.300;10.180;2023-04-29T12:05:13;18.40;99.90
14057;DHT22;7103;54.300;10.180;2023-04-29T12:07:42;18.20;99.90
14057;DHT22;7103;54.300;10.180;2023-04-29T12:10:09;18.40;99.90
14057;DHT22;7103;54.300;10.180;2023-04-29T12:12:38;18.90;99.90
14057;DHT22;7103;54.300;10.180;2023-04-29T12:15:08;18.40;99.90
14057;DHT22;7103;54.300;10.180;2023-04-29T12:17:36;18.30;99.90
14057;DHT22;7103;54.300;10.180;2023-04-29T12:20:05;18.30;99.90
14057;DHT22;7103;54.300;10.180;2023-04-29T12:22:32;18.40;99.90
14057;DHT22;7103;54.300;10.180;2023-04-29T12:25:02;18.80;99.90
14057;DHT22;7103;54.300;10.180;2023-04-29T12:27:29;19.00;99.90
14057;DHT22;7103;54.300;10.180;2023-04-29T12:29:56;18.60;99.90
14057;DHT22;7103;54.300;10.180;2023-04-29T12:32:24;18.20;99.90
14057;DHT22;7103;54.300;10.180;2023-04-29T12:34:51;17.70;99.90
14057;DHT22;7103;54.300;10.180;2023-04-29T12:37:21;17.50;99.90
14057;DHT22;7103;54.300;10.180;2023-04-29T12:39:49;17.00;99.90
14057;DHT22;7103;54.300;10.180;2023-04-29T12:42:16;16.70;99.90
14057;DHT22;7103;54.300;10.180;2023-04-29T12:44:44;16.50;99.90
14057;DHT22;7103;54.300;10.180;2023-04-29T12:47:13;17.00;99.90
14057;DHT22;7103;54.300;10.180;2023-04-29T12:49:42;17.10;99.90
14057;DHT22;7103;54.300;10.180;2023-04-29T12:52:10;16.90;99.90
14057;DHT22;7103;54.300;10.180;2023-04-29T12:54:40;17.10;99.90
14057;DHT22;7103;54.300;10.180;2023-04-29T12:57:10;17.10;99.90
14057;DHT22;7103;54.300;10.180;2023-04-29T12:59:38;17.40;99.90
14057;DHT22;7103;54.300;10.180;2023-04-29T13:02:07;17.30;99.90
14057;DHT22;7103;54.300;10.180;2023-04-29T13:04:34;16.80;99.90
14057;DHT22;7103;54.300;10.180;2023-04-29T13:07:01;16.70;99.90
14057;DHT22;7103;54.300;10.180;2023-04-29T13:09:30;16.60;99.90
14057;DHT22;7103;54.300;10.180;2023-04-29T13:11:57;16.30;99.90
14057;DHT22;7103;54.300;10.180;2023-04-29T13:14:25;16.50;99.90
14057;DHT22;7103;54.300;10.180;2023-04-29T13:16:52;16.50;99.90
14057;DHT22;7103;54.300;10.180;2023-04-29T13:19:19;16.30;99.90
14057;DHT22;7103;54.300;10.180;2023-04-29T13:22:07;16.30;99.90
14057;DHT22;7103;54.300;10.180;2023-04-29T13:24:34;16.00;99.90
14057;DHT22;7103;54.300;10.180;2023-04-29T13:27:02;15.80;99.90
14057;DHT22;7103;54.300;10.180;2023-04-29T13:29:29;15.80;99.90
14057;DHT22;7103;54.300;10.180;2023-04-29T13:31:56;15.90;99.90
14057;DHT22;7103;54.300;10.180;2023-04-29T13:34:23;15.70;99.90
14057;DHT22;7103;54.300;10.180;2023-04-29T13:36:50;15.60;99.90
14057;DHT22;7103;54.300;10.180;2023-04-29T13:39:17;15.40;99.90
14057;DHT22;7103;54.300;10.180;2023-04-29T13:41:46;15.40;99.90
14057;DHT22;7103;54.300;10.180;2023-04-29T13:44:13;15.20;99.90
14057;DHT22;7103;54.300;10.180;2023-04-29T13:46:42;15.50;99.90
14057;DHT22;7103;54.300;10.180;2023-04-29T13:49:11;15.70;99.90
14057;DHT22;7103;54.300;10.180;2023-04-29T13:51:58;15.50;99.90
14057;DHT22;7103;54.300;10.180;2023-04-29T13:54:28;15.20;99.90
14057;DHT22;7103;54.300;10.180;2023-04-29T13:56:58;15.00;99.90
14057;DHT22;7103;54.300;10.180;2023-04-29T13:59:45;15.10;99.90
14057;DHT22;7103;54.300;10.180;2023-04-29T14:02:18;15.10;99.90
14057;DHT22;7103;54.300;10.180;2023-04-29T14:04:48;15.00;99.90
14057;DHT22;7103;54.300;10.180;2023-04-29T14:07:16;15.00;99.90
14057;DHT22;7103;54.300;10.180;2023-04-29T14:09:43;14.80;99.90
14057;DHT22;7103;54.300;10.180;2023-04-29T14:12:09;14.80;99.90
14057;DHT22;7103;54.300;10.180;2023-04-29T14:14:37;14.90;99.90
14057;DHT22;7103;54.300;10.180;2023-04-29T14:17:04;15.20;99.90
14057;DHT22;7103;54.300;10.180;2023-04-29T14:19:31;15.40;99.90
14057;DHT22;7103;54.300;10.180;2023-04-29T14:21:58;15.70;99.90
14057;DHT22;7103;54.300;10.180;2023-04-29T14:24:25;15.60;99.90
14057;DHT22;7103;54.300;10.180;2023-04-29T14:26:52;15.40;99.90
14057;DHT22;7103;54.300;10.180;2023-04-29T14:29:19;15.20;99.90
14057;DHT22;7103;54.300;10.180;2023-04-29T14:31:46;15.10;99.90
14057;DHT22;7103;54.300;10.180;2023-04-29T14:34:13;15.20;99.90
14057;DHT22;7103;54.300;10.180;2023-04-29T14:36:40;15.30;99.90
14057;DHT22;7103;54.300;10.180;2023-04-29T14:39:07;15.40;99.90
14057;DHT22;7103;54.300;10.180;2023-04-29T14:41:34;15.40;99.90
14057;DHT22;7103;54.300;10.180;2023-04-29T14:44:01;15.20;99.90
14057;DHT22;7103;54.300;10.180;2023-04-29T14:46:30;15.10;99.90
14057;DHT22;7103;54.300;10.180;2023-04-29T14:48:57;15.10;99.90
14057;DHT22;7103;54.300;10.180;2023-04-29T14:51:24;15.20;99.90
14057;DHT22;7103;54.300;10.180;2023-04-29T14:53:51;15.10;99.90
14057;DHT22;7103;54.300;10.180;2023-04-29T14:56:18;15.20;99.90
14057;DHT22;7103;54.300;10.180;2023-04-29T14:58:45;15.40;99.90
14057;DHT22;7103;54.300;10.180;2023-04-29T15:01:12;15.30;99.90
14057;DHT22;7103;54.300;10.180;2023-04-29T15:03:39;15.20;99.90
14057;DHT22;7103;54.300;10.180;2023-04-29T15:06:11;15.50;99.90
14057;DHT22;7103;54.300;10.180;2023-04-29T15:08:38;15.60;99.90
14057;DHT22;7103;54.300;10.180;2023-04-29T15:11:05;15.80;99.90
14057;DHT22;7103;54.300;10.180;2023-04-29T15:13:32;16.00;99.90
14057;DHT22;7103;54.300;10.180;2023-04-29T15:15:59;15.90;99.90
14057;DHT22;7103;54.300;10.180;2023-04-29T15:18:26;15.90;99.90
14057;DHT22;7103;54.300;10.180;2023-04-29T15:20:53;16.00;99.90
14057;DHT22;7103;54.300;10.180;2023-04-29T15:23:20;15.90;99.90
14057;DHT22;7103;54.300;10.180;2023-04-29T15:25:47;15.80;99.90
14057;DHT22;7103;54.300;10.180;2023-04-29T15:28:14;16.00;99.90
14057;DHT22;7103;54.300;10.180;2023-04-29T15:30:41;15.70;99.90
14057;DHT22;7103;54.300;10.180;2023-04-29T15:33:08;15.60;99.90
14057;DHT22;7103;54.300;10.180;2023-04-29T15:35:35;15.40;99.90
14057;DHT22;7103;54.300;10.180;2023-04-29T15:38:02;15.40;99.90
14057;DHT22;7103;54.300;10.180;2023-04-29T15:40:29;15.20;99.90
14057;DHT22;7103;54.300;10.180;2023-04-29T15:42:56;15.40;99.90
14057;DHT22;7103;54.300;10.180;2023-04-29T15:45:23;15.50;99.90
14057;DHT22;7103;54.300;10.180;2023-04-29T15:47:50;15.40;99.90
14057;DHT22;7103;54.300;10.180;2023-04-29T15:50:17;15.40;99.90
14057;DHT22;7103;54.300;10.180;2023-04-29T15:52:44;15.60;99.90
14057;DHT22;7103;54.300;10.180;2023-04-29T15:55:11;15.60;99.90
14057;DHT22;7103;54.300;10.180;2023-04-29T15:57:38;15.60;99.90
14057;DHT22;7103;54.300;10.180;2023-04-29T16:00:07;15.80;99.90
14057;DHT22;7103;54.300;10.180;2023-04-29T16:02:34;15.70;99.90
14057;DHT22;7103;54.300;10.180;2023-04-29T16:05:01;15.80;99.90
14057;DHT22;7103;54.300;10.180;2023-04-29T16:07:29;15.80;99.90
14057;DHT22;7103;54.300;10.180;2023-04-29T16:09:56;15.70;99.90
14057;DHT22;7103;54.300;10.180;2023-04-29T16:12:23;15.90;99.90
14057;DHT22;7103;54.300;10.180;2023-04-29T16:14:51;16.30;99.90
14057;DHT22;7103;54.300;10.180;2023-04-29T16:17:18;16.10;99.90
14057;DHT22;7103;54.300;10.180;2023-04-29T16:19:45;15.80;99.90
14057;DHT22;7103;54.300;10.180;2023-04-29T16:22:12;15.40;99.90